sensor_id;sensor_type;location;lat;lon;timestamp;pressure;altitude;pressure_sealevel;temperature;humidity
32131;BME280;18639;50.716;7.086;2023-05-10T00:01:50;99675.50;;;13.56;100.00
32131;BME280;18639;50.716;7.086;2023-05-10T00:04:15;99647.31;;;13.42;100.00
32131;BME280;18639;50.716;7.086;2023-05-10T00:06:41;99654.16;;;13.53;100.00
32131;BME280;18639;50.716;7.086;2023-05-10T00:09:06;99619.44;;;13.25;100.00
32131;BME280;18639;50.716;7.086;2023-05-10T00:11:31;99659.63;;;13.59;100.00
32131;BME280;18639;50.716;7.086;2023-05-10T00:13:56;99672.59;;;13.59;100.00
32131;BME280;18639;50.716;7.086;2023-05-10T00:16:22;99654.84;;;13.45;100.00
32131;BME280;18639;50.716;7.086;2023-05-10T00:18:47;99673.97;;;13.63;100.00
32131;BME280;18639;50.716;7.086;2023-05-10T00:21:12;99653.47;;;13.51;100.00
32131;BME280;18639;50.716;7.086;2023-05-10T00:23:38;99628.47;;;13.40;100.00
32131;BME280;18639;50.716;7.086;2023-05-10T00:26:03;99665.94;;;13.66;100.00
32131;BME280;18639;50.716;7.086;2023-05-10T00:28:28;99665.22;;;13.64;100.00
32131;BME280;18639;50.716;7.086;2023-05-10T00:30:54;99634.91;;;13.45;100.00
32131;BME280;18639;50.716;7.086;2023-05-10T00:33:20;99635.03;;;13.44;100.00
32131;BME280;18639;50.716;7.086;2023-05-10T00:35:46;99613.56;;;13.32;100.00
32131;BME280;18639;50.716;7.086;2023-05-10T00:38:11;99624.75;;;13.33;100.00
32131;BME280;18639;50.716;7.086;2023-05-10T00:40:36;99661.69;;;13.65;100.00
32131;BME280;18639;50.716;7.086;2023-05-10T00:43:02;99651.00;;;13.49;100.00
32131;BME280;18639;50.716;7.086;2023-05-10T00:45:29;99631.59;;;13.43;100.00
32131;BME280;18639;50.716;7.086;2023-05-10T00:47:55;99673.97;;;13.63;100.00
32131;BME280;18639;50.716;7.086;2023-05-10T00:50:22;99594.09;;;13.07;100.00
32131;BME280;18639;50.716;7.086;2023-05-10T00:52:47;99633.91;;;13.37;100.00
32131;BME280;18639;50.716;7.086;2023-05-10T00:55:13;99673.97;;;13.63;100.00
32131;BME280;18639;50.716;7.086;2023-05-10T00:57:39;99668.78;;;13.63;100.00
32131;BME280;18639;50.716;7.086;2023-05-10T01:00:05;99667.84;;;13.64;100.00
32131;BME280;18639;50.716;7.086;2023-05-10T01:02:31;99667.97;;;13.63;100.00
32131;BME280;18639;50.716;7.086;2023-05-10T01:04:56;99656.91;;;13.51;100.00
32131;BME280;18639;50.716;7.086;2023-05-10T01:07:21;99658.38;;;13.54;100.00
32131;BME280;18639;50.716;7.086;2023-05-10T01:09:47;99645.81;;;13.49;100.00
32131;BME280;18639;50.716;7.086;2023-05-10T01:12:12;99657.56;;;13.53;100.00
32131;BME280;18639;50.716;7.086;2023-05-10T01:14:38;99639.78;;;13.39;100.00
32131;BME280;18639;50.716;7.086;2023-05-10T01:17:05;99654.44;;;13.49;100.00
32131;BME280;18639;50.716;7.086;2023-05-10T01:19:32;99678.50;;;13.61;100.00
32131;BME280;18639;50.716;7.086;2023-05-10T01:27:25;99666.59;;;13.59;100.00
32131;BME280;18639;50.716;7.086;2023-05-10T01:30:08;99674.25;;;13.60;100.00
32131;BME280;18639;50.716;7.086;2023-05-10T01:32:59;99676.84;;;13.60;100.00
32131;BME280;18639;50.716;7.086;2023-05-10T01:35:35;99679.44;;;13.60;100.00
32131;BME280;18639;50.716;7.086;2023-05-10T01:38:25;99671.66;;;13.60;100.00
32131;BME280;18639;50.716;7.086;2023-05-10T01:41:48;99671.78;;;13.59;100.00
32131;BME280;18639;50.716;7.086;2023-05-10T01:43:57;99654.69;;;13.46;100.00
32131;BME280;18639;50.716;7.086;2023-05-10T01:46:28;99669.06;;;13.51;100.00
32131;BME280;18639;50.716;7.086;2023-05-10T01:48:57;99661.69;;;13.46;100.00
32131;BME280;18639;50.716;7.086;2023-05-10T01:51:27;99668.34;;;13.48;100.00
32131;BME280;18639;50.716;7.086;2023-05-10T01:54:01;99665.22;;;13.45;100.00
32131;BME280;18639;50.716;7.086;2023-05-10T01:56:29;99674.25;;;13.51;100.00
32131;BME280;18639;50.716;7.086;2023-05-10T01:58:56;99670.13;;;13.38;100.00
32131;BME280;18639;50.716;7.086;2023-05-10T02:01:22;99669.28;;;13.38;100.00
32131;BME280;18639;50.716;7.086;2023-05-10T02:03:51;99667.94;;;13.34;100.00
32131;BME280;18639;50.716;7.086;2023-05-10T02:06:18;99651.66;;;13.32;100.00
32131;BME280;18639;50.716;7.086;2023-05-10T02:08:45;99665.63;;;13.40;100.00
32131;BME280;18639;50.716;7.086;2023-05-10T02:11:13;99651.00;;;13.30;100.00
32131;BME280;18639;50.716;7.086;2023-05-10T02:13:39;99679.28;;;13.42;100.00
32131;BME280;18639;50.716;7.086;2023-05-10T02:16:05;99665.31;;;13.34;100.00
32131;BME280;18639;50.716;7.086;2023-05-10T02:18:33;99681.03;;;13.42;100.00
32131;BME280;18639;50.716;7.086;2023-05-10T02:21:02;99692.25;;;13.42;100.00
32131;BME280;18639;50.716;7.086;2023-05-10T02:23:28;99697.56;;;13.41;100.00
32131;BME280;18639;50.716;7.086;2023-05-10T02:25:54;99684.75;;;13.39;100.00
32131;BME280;18639;50.716;7.086;2023-05-10T02:28:23;99690.06;;;13.38;100.00
32131;BME280;18639;50.716;7.086;2023-05-10T02:30:50;99688.81;;;13.32;100.00
32131;BME280;18639;50.716;7.086;2023-05-10T02:33:17;99683.50;;;13.34;100.00
32131;BME280;18639;50.716;7.086;2023-05-10T02:35:43;99695.53;;;13.35;100.00
32131;BME280;18639;50.716;7.086;2023-05-10T02:38:09;99693.59;;;13.37;100.00
32131;BME280;18639;50.716;7.086;2023-05-10T02:40:36;99705.34;;;13.41;100.00
32131;BME280;18639;50.716;7.086;2023-05-10T02:43:04;99690.34;;;13.35;100.00
32131;BME280;18639;50.716;7.086;2023-05-10T02:45:31;99703.72;;;13.40;100.00
32131;BME280;18639;50.716;7.086;2023-05-10T02:47:58;99699.72;;;13.36;100.00
32131;BME280;18639;50.716;7.086;2023-05-10T02:50:27;99692.22;;;13.33;100.00
32131;BME280;18639;50.716;7.086;2023-05-10T02:52:57;99701.38;;;13.37;100.00
32131;BME280;18639;50.716;7.086;2023-05-10T02:55:26;99692.94;;;13.35;100.00
32131;BME280;18639;50.716;7.086;2023-05-10T02:58:00;99701.25;;;13.38;100.00
32131;BME280;18639;50.716;7.086;2023-05-10T03:00:26;99694.53;;;13.36;100.00
32131;BME280;18639;50.716;7.086;2023-05-10T03:02:52;99697.84;;;13.38;100.00
32131;BME280;18639;50.716;7.086;2023-05-10T03:05:17;99699.88;;;13.34;100.00
32131;BME280;18639;50.716;7.086;2023-05-10T03:07:43;99692.66;;;13.38;100.00
32131;BME280;18639;50.716;7.086;2023-05-10T03:10:09;99666.81;;;13.27;100.00
32131;BME280;18639;50.716;7.086;2023-05-10T03:15:28;99699.63;;;13.37;100.00
32131;BME280;18639;50.716;7.086;2023-05-10T03:18:04;99689.75;;;13.31;100.00
32131;BME280;18639;50.716;7.086;2023-05-10T03:20:35;99710.28;;;13.34;100.00
32131;BME280;18639;50.716;7.086;2023-05-10T03:23:12;99710.69;;;13.39;100.00
32131;BME280;18639;50.716;7.086;2023-05-10T03:25:39;99701.81;;;13.42;100.00
32131;BME280;18639;50.716;7.086;2023-05-10T03:28:06;99701.97;;;13.40;100.00
32131;BME280;18639;50.716;7.086;2023-05-10T03:30:32;99702.09;;;13.39;100.00
32131;BME280;18639;50.716;7.086;2023-05-10T03:33:04;99698.78;;;13.37;100.00
32131;BME280;18639;50.716;7.086;2023-05-10T03:35:29;99709.44;;;13.34;100.00
32131;BME280;18639;50.716;7.086;2023-05-10T03:37:54;99706.56;;;13.27;100.00
32131;BME280;18639;50.716;7.086;2023-05-10T03:40:20;99722.56;;;13.42;100.00
32131;BME280;18639;50.716;7.086;2023-05-10T03:42:45;99720.91;;;13.41;100.00
32131;BME280;18639;50.716;7.086;2023-05-10T03:45:10;99724.22;;;13.43;100.00
32131;BME280;18639;50.716;7.086;2023-05-10T03:47:35;99721.47;;;13.35;100.00
32131;BME280;18639;50.716;7.086;2023-05-10T03:50:01;99728.34;;;13.45;100.00
32131;BME280;18639;50.716;7.086;2023-05-10T03:52:27;99731.19;;;13.42;100.00
32131;BME280;18639;50.716;7.086;2023-05-10T03:54:52;99731.06;;;13.44;100.00
32131;BME280;18639;50.716;7.086;2023-05-10T03:57:18;99735.31;;;13.45;100.00
32131;BME280;18639;50.716;7.086;2023-05-10T03:59:43;99721.47;;;13.35;100.00
32131;BME280;18639;50.716;7.086;2023-05-10T04:02:08;99731.75;;;13.46;100.00
32131;BME280;18639;50.716;7.086;2023-05-10T04:04:33;99719.53;;;13.37;100.00
32131;BME280;18639;50.716;7.086;2023-05-10T04:06:59;99734.91;;;13.49;100.00
32131;BME280;18639;50.716;7.086;2023-05-10T04:09:24;99733.38;;;13.47;100.00
32131;BME280;18639;50.716;7.086;2023-05-10T04:11:50;99723.69;;;13.49;100.00
32131;BME280;18639;50.716;7.086;2023-05-10T04:14:15;99718.19;;;13.42;100.00
32131;BME280;18639;50.716;7.086;2023-05-10T04:16:41;99713.41;;;13.38;100.00
32131;BME280;18639;50.716;7.086;2023-05-10T04:19:06;99720.78;;;13.42;100.00
32131;BME280;18639;50.716;7.086;2023-05-10T04:21:32;99709.16;;;13.37;100.00
32131;BME280;18639;50.716;7.086;2023-05-10T04:23:57;99738.16;;;13.52;100.00
32131;BME280;18639;50.716;7.086;2023-05-10T04:26:23;99729.31;;;13.54;100.00
32131;BME280;18639;50.716;7.086;2023-05-10T04:28:50;99721.78;;;13.51;100.00
32131;BME280;18639;50.716;7.086;2023-05-10T04:31:15;99688.09;;;13.30;100.00
32131;BME280;18639;50.716;7.086;2023-05-10T04:33:40;99716.19;;;13.46;100.00
32131;BME280;18639;50.716;7.086;2023-05-10T04:36:06;99707.81;;;13.42;100.00
32131;BME280;18639;50.716;7.086;2023-05-10T04:38:31;99700.44;;;13.38;100.00
32131;BME280;18639;50.716;7.086;2023-05-10T04:41:07;99728.91;;;13.59;100.00
32131;BME280;18639;50.716;7.086;2023-05-10T04:43:33;99740.66;;;13.63;100.00
32131;BME280;18639;50.716;7.086;2023-05-10T04:45:58;99724.25;;;13.62;100.00
32131;BME280;18639;50.716;7.086;2023-05-10T04:48:24;99731.09;;;13.63;100.00
32131;BME280;18639;50.716;7.086;2023-05-10T04:50:49;99741.22;;;13.66;100.00
32131;BME280;18639;50.716;7.086;2023-05-10T04:53:14;99743.94;;;13.65;100.00
32131;BME280;18639;50.716;7.086;2023-05-10T04:55:40;99734.38;;;13.65;100.00
32131;BME280;18639;50.716;7.086;2023-05-10T04:58:05;99747.09;;;13.68;100.00
32131;BME280;18639;50.716;7.086;2023-05-10T05:00:30;99728.91;;;13.59;100.00
32131;BME280;18639;50.716;7.086;2023-05-10T05:02:56;99747.78;;;13.70;100.00
32131;BME280;18639;50.716;7.086;2023-05-10T05:05:21;99751.09;;;13.72;100.00
32131;BME280;18639;50.716;7.086;2023-05-10T05:07:46;99750.25;;;13.72;100.00
32131;BME280;18639;50.716;7.086;2023-05-10T05:10:11;99735.88;;;13.68;100.00
32131;BME280;18639;50.716;7.086;2023-05-10T05:12:37;99749.03;;;13.76;100.00
32131;BME280;18639;50.716;7.086;2023-05-10T05:15:02;99746.13;;;13.69;100.00
32131;BME280;18639;50.716;7.086;2023-05-10T05:17:30;99769.41;;;13.80;100.00
32131;BME280;18639;50.716;7.086;2023-05-10T05:19:55;99753.41;;;13.75;100.00
32131;BME280;18639;50.716;7.086;2023-05-10T05:22:20;99770.78;;;13.84;100.00
32131;BME280;18639;50.716;7.086;2023-05-10T05:24:52;99755.88;;;13.77;100.00
32131;BME280;18639;50.716;7.086;2023-05-10T05:27:17;99777.38;;;13.88;100.00
32131;BME280;18639;50.716;7.086;2023-05-10T05:29:43;99760.38;;;13.84;100.00
32131;BME280;18639;50.716;7.086;2023-05-10T05:32:08;99768.47;;;13.91;100.00
32131;BME280;18639;50.716;7.086;2023-05-10T05:34:33;99767.38;;;13.94;100.00
32131;BME280;18639;50.716;7.086;2023-05-10T05:36:59;99779.81;;;14.00;100.00
32131;BME280;18639;50.716;7.086;2023-05-10T05:39:24;99785.00;;;14.00;100.00
32131;BME280;18639;50.716;7.086;2023-05-10T05:41:49;99791.06;;;14.10;100.00
32131;BME280;18639;50.716;7.086;2023-05-10T05:44:15;99778.44;;;14.05;100.00
32131;BME280;18639;50.716;7.086;2023-05-10T05:46:40;99785.47;;;14.14;100.00
32131;BME280;18639;50.716;7.086;2023-05-10T05:49:05;99788.59;;;14.18;100.00
32131;BME280;18639;50.716;7.086;2023-05-10T05:51:30;99778.75;;;14.12;100.00
32131;BME280;18639;50.716;7.086;2023-05-10T05:53:56;99776.56;;;14.17;100.00
32131;BME280;18639;50.716;7.086;2023-05-10T05:56:21;99786.16;;;14.26;100.00
32131;BME280;18639;50.716;7.086;2023-05-10T05:58:52;99797.81;;;14.41;100.00
32131;BME280;18639;50.716;7.086;2023-05-10T06:01:17;99803.03;;;14.41;100.00
32131;BME280;18639;50.716;7.086;2023-05-10T06:03:42;99803.97;;;14.50;100.00
32131;BME280;18639;50.716;7.086;2023-05-10T06:06:08;99797.00;;;14.50;100.00
32131;BME280;18639;50.716;7.086;2023-05-10T06:08:33;99807.94;;;14.63;100.00
32131;BME280;18639;50.716;7.086;2023-05-10T06:10:59;99790.00;;;14.60;100.00
32131;BME280;18639;50.716;7.086;2023-05-10T06:13:25;99806.41;;;14.80;100.00
32131;BME280;18639;50.716;7.086;2023-05-10T06:15:53;99805.88;;;14.77;100.00
32131;BME280;18639;50.716;7.086;2023-05-10T06:18:19;99816.53;;;14.93;100.00
32131;BME280;18639;50.716;7.086;2023-05-10T06:20:44;99806.63;;;14.96;100.00
32131;BME280;18639;50.716;7.086;2023-05-10T06:23:09;99805.69;;;14.97;100.00
32131;BME280;18639;50.716;7.086;2023-05-10T06:25:34;99803.38;;;14.94;100.00
32131;BME280;18639;50.716;7.086;2023-05-10T06:28:00;99817.06;;;14.96;100.00
32131;BME280;18639;50.716;7.086;2023-05-10T06:30:25;99826.63;;;14.96;100.00
32131;BME280;18639;50.716;7.086;2023-05-10T06:32:54;99821.63;;;14.85;100.00
32131;BME280;18639;50.716;7.086;2023-05-10T06:35:20;99830.63;;;14.81;100.00
32131;BME280;18639;50.716;7.086;2023-05-10T06:37:45;99816.97;;;14.59;100.00
32131;BME280;18639;50.716;7.086;2023-05-10T06:40:11;99835.97;;;14.60;100.00
32131;BME280;18639;50.716;7.086;2023-05-10T06:42:37;99835.69;;;14.53;100.00
32131;BME280;18639;50.716;7.086;2023-05-10T06:45:03;99829.44;;;14.46;100.00
32131;BME280;18639;50.716;7.086;2023-05-10T06:47:28;99843.91;;;14.49;100.00
32131;BME280;18639;50.716;7.086;2023-05-10T06:49:54;99828.97;;;14.31;100.00
32131;BME280;18639;50.716;7.086;2023-05-10T06:52:19;99830.75;;;14.31;100.00
32131;BME280;18639;50.716;7.086;2023-05-10T06:54:45;99844.41;;;14.33;100.00
32131;BME280;18639;50.716;7.086;2023-05-10T06:57:10;99838.69;;;14.29;100.00
32131;BME280;18639;50.716;7.086;2023-05-10T06:59:35;99846.06;;;14.34;100.00
32131;BME280;18639;50.716;7.086;2023-05-10T07:02:01;99846.34;;;14.31;100.00
32131;BME280;18639;50.716;7.086;2023-05-10T07:04:27;99835.97;;;14.31;100.00
32131;BME280;18639;50.716;7.086;2023-05-10T07:06:52;99823.63;;;14.23;100.00
32131;BME280;18639;50.716;7.086;2023-05-10T07:09:18;99833.72;;;14.26;100.00
32131;BME280;18639;50.716;7.086;2023-05-10T07:11:43;99823.91;;;14.20;100.00
32131;BME280;18639;50.716;7.086;2023-05-10T07:14:08;99836.75;;;14.22;100.00
32131;BME280;18639;50.716;7.086;2023-05-10T07:16:34;99850.72;;;14.30;100.00
32131;BME280;18639;50.716;7.086;2023-05-10T07:18:59;99831.00;;;14.18;100.00
32131;BME280;18639;50.716;7.086;2023-05-10T07:21:24;99847.44;;;14.28;100.00
32131;BME280;18639;50.716;7.086;2023-05-10T07:23:50;99838.25;;;14.24;100.00
32131;BME280;18639;50.716;7.086;2023-05-10T07:26:15;99840.59;;;14.27;100.00
32131;BME280;18639;50.716;7.086;2023-05-10T07:28:41;99836.34;;;14.26;100.00
32131;BME280;18639;50.716;7.086;2023-05-10T07:31:06;99855.97;;;14.40;100.00
32131;BME280;18639;50.716;7.086;2023-05-10T07:33:31;99846.38;;;14.41;100.00
32131;BME280;18639;50.716;7.086;2023-05-10T07:35:57;99818.84;;;14.28;100.00
32131;BME280;18639;50.716;7.086;2023-05-10T07:38:22;99843.38;;;14.45;100.00
32131;BME280;18639;50.716;7.086;2023-05-10T07:40:48;99848.03;;;14.51;100.00
32131;BME280;18639;50.716;7.086;2023-05-10T07:43:13;99857.06;;;14.57;100.00
32131;BME280;18639;50.716;7.086;2023-05-10T07:45:38;99840.66;;;14.47;100.00
32131;BME280;18639;50.716;7.086;2023-05-10T07:48:04;99854.72;;;14.54;100.00
32131;BME280;18639;50.716;7.086;2023-05-10T07:50:29;99854.59;;;14.55;100.00
32131;BME280;18639;50.716;7.086;2023-05-10T07:52:55;99871.56;;;14.59;100.00
32131;BME280;18639;50.716;7.086;2023-05-10T07:55:20;99869.91;;;14.58;100.00
32131;BME280;18639;50.716;7.086;2023-05-10T07:57:46;99836.25;;;14.38;100.00
32131;BME280;18639;50.716;7.086;2023-05-10T08:00:17;99871.03;;;14.56;100.00
32131;BME280;18639;50.716;7.086;2023-05-10T08:02:43;99865.53;;;14.49;100.00
32131;BME280;18639;50.716;7.086;2023-05-10T08:05:08;99871.84;;;14.47;100.00
32131;BME280;18639;50.716;7.086;2023-05-10T08:07:34;99826.75;;;14.27;100.00
32131;BME280;18639;50.716;7.086;2023-05-10T08:09:59;99861.69;;;14.53;100.00
32131;BME280;18639;50.716;7.086;2023-05-10T08:12:25;99877.75;;;14.68;100.00
32131;BME280;18639;50.716;7.086;2023-05-10T08:14:50;99861.97;;;14.69;100.00
32131;BME280;18639;50.716;7.086;2023-05-10T08:17:16;99861.19;;;14.79;100.00
32131;BME280;18639;50.716;7.086;2023-05-10T08:19:41;99839.16;;;14.73;100.00
32131;BME280;18639;50.716;7.086;2023-05-10T08:22:06;99848.19;;;14.79;100.00
32131;BME280;18639;50.716;7.086;2023-05-10T08:24:32;99836.13;;;14.78;100.00
32131;BME280;18639;50.716;7.086;2023-05-10T08:26:57;99855.13;;;14.97;100.00
32131;BME280;18639;50.716;7.086;2023-05-10T08:29:22;99836.09;;;14.97;100.00
32131;BME280;18639;50.716;7.086;2023-05-10T08:31:48;99884.38;;;15.28;100.00
32131;BME280;18639;50.716;7.086;2023-05-10T08:34:13;99848.00;;;15.09;100.00
32131;BME280;18639;50.716;7.086;2023-05-10T08:36:38;99798.88;;;14.77;100.00
32131;BME280;18639;50.716;7.086;2023-05-10T08:39:04;99853.16;;;15.18;100.00
32131;BME280;18639;50.716;7.086;2023-05-10T08:41:29;99872.63;;;15.24;100.00
32131;BME280;18639;50.716;7.086;2023-05-10T08:43:56;99870.00;;;15.24;100.00
32131;BME280;18639;50.716;7.086;2023-05-10T08:46:23;99876.88;;;15.25;100.00
32131;BME280;18639;50.716;7.086;2023-05-10T08:48:50;99876.56;;;15.28;100.00
32131;BME280;18639;50.716;7.086;2023-05-10T08:51:26;99864.41;;;15.19;100.00
32131;BME280;18639;50.716;7.086;2023-05-10T08:53:54;99881.66;;;15.30;100.00
32131;BME280;18639;50.716;7.086;2023-05-10T08:56:20;99881.25;;;15.25;100.00
32131;BME280;18639;50.716;7.086;2023-05-10T08:58:46;99863.34;;;14.93;100.00
32131;BME280;18639;50.716;7.086;2023-05-10T09:01:12;99884.84;;;15.04;100.00
32131;BME280;18639;50.716;7.086;2023-05-10T09:03:38;99892.94;;;14.92;100.00
32131;BME280;18639;50.716;7.086;2023-05-10T09:06:04;99893.59;;;14.65;100.00
32131;BME280;18639;50.716;7.086;2023-05-10T09:08:30;99924.16;;;14.72;100.00
32131;BME280;18639;50.716;7.086;2023-05-10T09:10:56;99919.50;;;14.66;100.00
32131;BME280;18639;50.716;7.086;2023-05-10T09:13:22;99895.25;;;14.47;100.00
32131;BME280;18639;50.716;7.086;2023-05-10T09:15:48;99918.53;;;14.58;100.00
32131;BME280;18639;50.716;7.086;2023-05-10T09:18:13;99896.72;;;14.40;100.00
32131;BME280;18639;50.716;7.086;2023-05-10T09:20:39;99922.84;;;14.38;100.00
32131;BME280;18639;50.716;7.086;2023-05-10T09:23:05;99920.00;;;14.41;100.00
32131;BME280;18639;50.716;7.086;2023-05-10T09:25:31;99939.28;;;14.48;100.00
32131;BME280;18639;50.716;7.086;2023-05-10T09:27:59;99938.91;;;14.53;100.00
32131;BME280;18639;50.716;7.086;2023-05-10T09:30:26;99943.97;;;14.54;100.00
32131;BME280;18639;50.716;7.086;2023-05-10T09:32:53;99934.09;;;14.48;100.00
32131;BME280;18639;50.716;7.086;2023-05-10T09:35:20;99934.25;;;14.56;100.00
32131;BME280;18639;50.716;7.086;2023-05-10T09:37:48;99930.44;;;14.60;100.00
32131;BME280;18639;50.716;7.086;2023-05-10T09:40:24;99939.22;;;14.69;100.00
32131;BME280;18639;50.716;7.086;2023-05-10T09:43:02;99944.56;;;14.87;100.00
32131;BME280;18639;50.716;7.086;2023-05-10T09:45:30;99928.13;;;14.96;100.00
32131;BME280;18639;50.716;7.086;2023-05-10T09:47:57;99941.13;;;15.15;100.00
32131;BME280;18639;50.716;7.086;2023-05-10T09:50:24;99915.94;;;15.06;100.00
32131;BME280;18639;50.716;7.086;2023-05-10T09:52:55;99946.06;;;15.37;100.00
32131;BME280;18639;50.716;7.086;2023-05-10T09:55:23;99929.88;;;15.43;100.00
32131;BME280;18639;50.716;7.086;2023-05-10T09:57:49;99929.28;;;15.49;100.00
32131;BME280;18639;50.716;7.086;2023-05-10T10:00:23;99933.41;;;15.62;100.00
32131;BME280;18639;50.716;7.086;2023-05-10T10:02:55;99939.25;;;15.83;100.00
32131;BME280;18639;50.716;7.086;2023-05-10T10:05:21;99942.38;;;16.51;100.00
32131;BME280;18639;50.716;7.086;2023-05-10T10:07:52;99901.50;;;16.41;100.00
32131;BME280;18639;50.716;7.086;2023-05-10T10:10:18;99915.28;;;16.52;100.00
32131;BME280;18639;50.716;7.086;2023-05-10T10:12:43;99925.06;;;16.50;100.00
32131;BME280;18639;50.716;7.086;2023-05-10T10:15:10;99911.16;;;16.31;100.00
32131;BME280;18639;50.716;7.086;2023-05-10T10:17:36;99906.72;;;16.14;100.00
32131;BME280;18639;50.716;7.086;2023-05-10T10:20:03;99942.19;;;16.34;100.00
32131;BME280;18639;50.716;7.086;2023-05-10T10:22:29;99942.22;;;16.25;100.00
32131;BME280;18639;50.716;7.086;2023-05-10T10:24:54;99938.94;;;16.23;100.00
32131;BME280;18639;50.716;7.086;2023-05-10T10:35:36;99936.84;;;15.33;100.00
32131;BME280;18639;50.716;7.086;2023-05-10T10:38:02;99937.84;;;15.32;100.00
32131;BME280;18639;50.716;7.086;2023-05-10T10:40:29;99915.06;;;15.53;100.00
32131;BME280;18639;50.716;7.086;2023-05-10T10:42:56;99911.06;;;15.69;100.00
32131;BME280;18639;50.716;7.086;2023-05-10T10:45:22;99931.56;;;16.18;100.00
32131;BME280;18639;50.716;7.086;2023-05-10T10:47:47;99923.13;;;16.34;100.00
32131;BME280;18639;50.716;7.086;2023-05-10T10:50:13;99917.50;;;16.29;100.00
32131;BME280;18639;50.716;7.086;2023-05-10T10:52:40;99929.53;;;16.39;100.00
32131;BME280;18639;50.716;7.086;2023-05-10T10:55:11;99948.56;;;16.22;100.00
32131;BME280;18639;50.716;7.086;2023-05-10T11:00:25;99928.97;;;16.09;100.00
32131;BME280;18639;50.716;7.086;2023-05-10T11:03:12;99945.25;;;16.48;100.00
32131;BME280;18639;50.716;7.086;2023-05-10T11:05:48;99953.75;;;16.77;100.00
32131;BME280;18639;50.716;7.086;2023-05-10T11:08:16;99920.13;;;16.92;100.00
32131;BME280;18639;50.716;7.086;2023-05-10T11:13:39;99940.25;;;17.17;100.00
32131;BME280;18639;50.716;7.086;2023-05-10T11:16:19;99950.41;;;17.20;100.00
32131;BME280;18639;50.716;7.086;2023-05-10T11:18:57;99954.34;;;17.06;100.00
32131;BME280;18639;50.716;7.086;2023-05-10T11:21:23;99944.34;;;17.02;100.00
32131;BME280;18639;50.716;7.086;2023-05-10T11:23:51;99952.09;;;17.11;100.00
32131;BME280;18639;50.716;7.086;2023-05-10T11:26:17;99949.03;;;17.16;100.00
32131;BME280;18639;50.716;7.086;2023-05-10T11:28:53;99946.97;;;17.19;100.00
32131;BME280;18639;50.716;7.086;2023-05-10T11:31:20;99941.00;;;17.09;100.00
32131;BME280;18639;50.716;7.086;2023-05-10T11:33:54;99942.34;;;17.13;100.00
32131;BME280;18639;50.716;7.086;2023-05-10T11:36:33;99960.53;;;17.41;100.00
32131;BME280;18639;50.716;7.086;2023-05-10T11:38:58;99952.59;;;17.33;100.00
32131;BME280;18639;50.716;7.086;2023-05-10T11:41:25;99922.78;;;17.17;100.00
32131;BME280;18639;50.716;7.086;2023-05-10T11:43:55;99959.13;;;17.54;100.00
32131;BME280;18639;50.716;7.086;2023-05-10T11:46:22;99955.91;;;17.78;100.00
32131;BME280;18639;50.716;7.086;2023-05-10T11:48:52;99963.47;;;17.89;100.00
32131;BME280;18639;50.716;7.086;2023-05-10T11:51:22;99956.88;;;17.77;100.00
32131;BME280;18639;50.716;7.086;2023-05-10T11:53:49;99951.50;;;17.79;100.00
32131;BME280;18639;50.716;7.086;2023-05-10T11:56:15;99966.53;;;17.85;100.00
32131;BME280;18639;50.716;7.086;2023-05-10T11:58:40;99963.31;;;17.65;100.00
32131;BME280;18639;50.716;7.086;2023-05-10T12:01:07;99965.56;;;17.60;100.00
32131;BME280;18639;50.716;7.086;2023-05-10T12:03:32;99949.72;;;17.36;100.00
32131;BME280;18639;50.716;7.086;2023-05-10T12:05:59;99960.06;;;17.10;100.00
32131;BME280;18639;50.716;7.086;2023-05-10T12:08:27;99927.03;;;16.83;100.00
32131;BME280;18639;50.716;7.086;2023-05-10T12:11:03;99964.50;;;16.92;100.00
32131;BME280;18639;50.716;7.086;2023-05-10T12:13:28;99966.66;;;16.96;100.00
32131;BME280;18639;50.716;7.086;2023-05-10T12:15:57;99967.25;;;16.90;100.00
32131;BME280;18639;50.716;7.086;2023-05-10T12:18:23;99953.75;;;16.77;100.00
32131;BME280;18639;50.716;7.086;2023-05-10T12:20:52;99971.59;;;16.81;100.00
32131;BME280;18639;50.716;7.086;2023-05-10T12:23:20;99956.19;;;16.61;100.00
32131;BME280;18639;50.716;7.086;2023-05-10T12:25:46;99935.25;;;16.43;100.00
32131;BME280;18639;50.716;7.086;2023-05-10T12:28:11;99982.44;;;16.59;100.00
32131;BME280;18639;50.716;7.086;2023-05-10T12:30:37;99977.06;;;16.51;100.00
32131;BME280;18639;50.716;7.086;2023-05-10T12:33:11;99944.09;;;16.32;100.00
32131;BME280;18639;50.716;7.086;2023-05-10T12:35:51;99960.16;;;16.37;100.00
32131;BME280;18639;50.716;7.086;2023-05-10T12:38:33;99982.72;;;16.47;100.00
32131;BME280;18639;50.716;7.086;2023-05-10T12:41:04;99957.03;;;16.24;100.00
32131;BME280;18639;50.716;7.086;2023-05-10T12:43:29;99990.75;;;16.35;100.00
32131;BME280;18639;50.716;7.086;2023-05-10T12:45:55;99937.69;;;15.99;100.00
32131;BME280;18639;50.716;7.086;2023-05-10T12:48:21;99991.38;;;16.20;100.00
32131;BME280;18639;50.716;7.086;2023-05-10T12:50:46;99988.13;;;16.08;100.00
32131;BME280;18639;50.716;7.086;2023-05-10T12:53:13;100000.22;;;15.99;100.00
32131;BME280;18639;50.716;7.086;2023-05-10T12:55:38;99996.56;;;15.83;100.00
32131;BME280;18639;50.716;7.086;2023-05-10T12:58:04;99977.28;;;15.66;100.00
32131;BME280;18639;50.716;7.086;2023-05-10T13:00:29;100003.59;;;15.73;100.00
32131;BME280;18639;50.716;7.086;2023-05-10T13:02:55;99988.41;;;15.58;100.00
32131;BME280;18639;50.716;7.086;2023-05-10T13:05:20;99947.44;;;15.32;100.00
32131;BME280;18639;50.716;7.086;2023-05-10T13:07:45;99999.72;;;15.77;100.00
32131;BME280;18639;50.716;7.086;2023-05-10T13:10:10;99963.03;;;15.61;100.00
32131;BME280;18639;50.716;7.086;2023-05-10T13:12:36;100004.22;;;15.94;100.00